createdAt,value
2018-05-17T00:01:18.555Z,91.65
2018-05-17T00:03:47.272Z,91.61
2018-05-17T00:06:15.412Z,91.65
2018-05-17T00:08:43.553Z,91.65
2018-05-17T00:11:11.688Z,91.54
2018-05-17T00:13:39.819Z,91.61
2018-05-17T00:16:08.040Z,91.89
2018-05-17T00:18:36.158Z,92.09
2018-05-17T00:21:04.295Z,91.77
2018-05-17T00:23:32.421Z,91.20
2018-05-17T00:26:00.555Z,90.35
2018-05-17T00:28:28.675Z,89.72
2018-05-17T00:30:56.802Z,89.39
2018-05-17T00:33:24.927Z,89.33
2018-05-17T00:35:53.045Z,88.86
2018-05-17T00:38:21.167Z,88.56
2018-05-17T00:40:49.292Z,88.34
2018-05-17T00:43:17.407Z,88.00
2018-05-17T00:45:45.543Z,87.54
2018-05-17T00:48:13.677Z,87.67
2018-05-17T00:50:41.787Z,87.30
2018-05-17T00:53:32.933Z,87.31
2018-05-17T00:56:01.043Z,87.05
2018-05-17T00:58:29.163Z,87.49
2018-05-17T01:00:57.287Z,87.93
2018-05-17T01:03:25.397Z,88.17
2018-05-17T01:05:53.524Z,88.53
2018-05-17T01:08:21.644Z,87.96
2018-05-17T01:10:49.780Z,88.25
2018-05-17T01:13:17.886Z,88.28
2018-05-17T01:15:46.021Z,88.60
2018-05-17T01:18:14.134Z,88.79
2018-05-17T01:20:42.256Z,89.31
2018-05-17T01:23:10.389Z,89.61
2018-05-17T01:25:38.507Z,89.82
2018-05-17T01:28:06.631Z,90.34
2018-05-17T01:30:34.761Z,90.51
2018-05-17T01:33:02.881Z,90.25
2018-05-17T01:35:30.992Z,90.39
2018-05-17T01:38:10.999Z,91.11
2018-05-17T01:40:39.140Z,91.09
2018-05-17T01:43:07.285Z,91.21
2018-05-17T01:45:35.439Z,91.45
2018-05-17T01:48:03.569Z,91.46
2018-05-17T01:50:31.696Z,91.57
2018-05-17T01:52:59.823Z,91.55
2018-05-17T01:55:27.952Z,91.86
2018-05-17T01:57:56.105Z,91.89
2018-05-17T02:00:24.271Z,91.79
2018-05-17T02:02:52.404Z,91.45
2018-05-17T02:05:20.529Z,91.34
2018-05-17T02:07:48.692Z,91.57
2018-05-17T02:10:16.797Z,91.74
2018-05-17T02:12:44.916Z,91.92
2018-05-17T02:15:13.043Z,91.82
2018-05-17T02:17:41.172Z,92.03
2018-05-17T02:20:09.290Z,92.05
2018-05-17T02:22:37.413Z,91.70
2018-05-17T02:25:05.636Z,91.73
2018-05-17T02:27:33.778Z,91.54
2018-05-17T02:30:01.920Z,91.42
2018-05-17T02:32:33.883Z,91.08
2018-05-17T02:35:02.008Z,91.50
2018-05-17T02:37:30.142Z,90.79
2018-05-17T02:39:58.423Z,91.40
2018-05-17T02:42:26.442Z,91.38
2018-05-17T02:44:54.570Z,91.68
2018-05-17T02:47:22.766Z,91.35
2018-05-17T02:49:50.830Z,91.67
2018-05-17T02:52:18.971Z,92.08
2018-05-17T02:54:47.091Z,91.27
2018-05-17T02:57:15.235Z,91.67
2018-05-17T02:59:43.372Z,92.11
2018-05-17T03:02:11.486Z,92.44
2018-05-17T03:04:39.634Z,92.49
2018-05-17T03:07:07.776Z,92.59
2018-05-17T03:09:35.907Z,92.67
2018-05-17T03:12:04.044Z,92.63
2018-05-17T03:14:32.173Z,92.80
2018-05-17T03:17:00.324Z,92.86
2018-05-17T03:19:28.440Z,93.09
2018-05-17T03:21:56.572Z,92.83
2018-05-17T03:24:24.714Z,92.78
2018-05-17T03:26:52.876Z,92.59
2018-05-17T03:29:21.003Z,92.70
2018-05-17T03:31:49.143Z,92.84
2018-05-17T03:34:17.267Z,92.71
2018-05-17T03:36:45.408Z,92.59
2018-05-17T03:39:13.544Z,92.66
2018-05-17T03:41:41.669Z,92.67
2018-05-17T03:44:09.818Z,91.87
2018-05-17T03:46:37.948Z,91.57
2018-05-17T03:49:06.155Z,91.72
2018-05-17T03:51:34.473Z,91.33
2018-05-17T03:54:02.622Z,90.73
2018-05-17T03:56:30.746Z,90.93
2018-05-17T03:58:58.915Z,90.69
2018-05-17T04:01:38.731Z,90.64
2018-05-17T04:04:18.707Z,90.86
2018-05-17T04:06:46.855Z,90.80
2018-05-17T04:09:15.006Z,90.70
2018-05-17T04:11:43.127Z,90.66
2018-05-17T04:14:11.254Z,90.25
2018-05-17T04:16:39.388Z,89.92
2018-05-17T04:19:07.529Z,89.78
2018-05-17T04:21:35.666Z,89.82
2018-05-17T04:24:03.886Z,89.77
2018-05-17T04:26:31.957Z,89.91
2018-05-17T04:29:00.117Z,89.69
2018-05-17T04:31:28.253Z,89.61
2018-05-17T04:33:56.402Z,89.74
2018-05-17T04:36:24.538Z,90.37
2018-05-17T04:38:52.666Z,90.49
2018-05-17T04:41:20.828Z,90.53
2018-05-17T04:43:48.960Z,90.55
2018-05-17T04:46:17.089Z,90.12
2018-05-17T04:48:45.207Z,90.24
2018-05-17T04:51:13.356Z,90.36
2018-05-17T04:53:41.510Z,89.83
2018-05-17T04:56:09.636Z,89.84
2018-05-17T04:58:37.766Z,89.51
2018-05-17T05:01:05.925Z,89.35
2018-05-17T05:03:34.059Z,88.91
2018-05-17T05:06:02.190Z,88.75
2018-05-17T05:08:30.457Z,89.17
2018-05-17T05:10:58.583Z,89.01
2018-05-17T05:13:26.727Z,88.79
2018-05-17T05:15:54.867Z,87.96
2018-05-17T05:18:23.005Z,88.15
2018-05-17T05:20:51.160Z,87.21
2018-05-17T05:23:19.293Z,87.36
2018-05-17T05:25:47.424Z,86.89
2018-05-17T05:28:15.551Z,86.13
2018-05-17T05:30:43.679Z,85.90
2018-05-17T05:33:11.816Z,85.04
2018-05-17T05:35:39.951Z,84.27
2018-05-17T05:38:08.081Z,83.52
2018-05-17T05:40:36.218Z,83.49
2018-05-17T05:43:04.346Z,82.91
2018-05-17T05:45:32.499Z,83.39
2018-05-17T05:48:00.621Z,83.86
2018-05-17T05:50:28.756Z,83.77
2018-05-17T05:52:56.892Z,83.72
2018-05-17T05:55:25.052Z,84.49
2018-05-17T05:57:53.159Z,85.44
2018-05-17T06:00:22.020Z,84.69
2018-05-17T06:02:50.136Z,85.01
2018-05-17T06:05:18.271Z,84.77
2018-05-17T06:07:46.398Z,84.58
2018-05-17T06:10:14.542Z,83.44
2018-05-17T06:12:42.694Z,83.36
2018-05-17T06:15:10.808Z,84.21
2018-05-17T06:17:38.951Z,84.75
2018-05-17T06:20:07.088Z,84.73
2018-05-17T06:22:35.217Z,84.65
2018-05-17T06:25:03.363Z,85.28
2018-05-17T06:27:31.490Z,85.63
2018-05-17T06:29:59.638Z,86.04
2018-05-17T06:32:27.772Z,85.98
2018-05-17T06:34:55.902Z,86.15
2018-05-17T06:37:24.037Z,86.07
2018-05-17T06:39:52.172Z,85.51
2018-05-17T06:42:20.724Z,84.58
2018-05-17T06:44:48.857Z,84.48
2018-05-17T06:47:16.987Z,84.93
2018-05-17T06:49:45.118Z,85.01
2018-05-17T06:52:13.267Z,84.79
2018-05-17T06:54:41.430Z,84.35
2018-05-17T06:57:10.340Z,84.47
2018-05-17T06:59:38.470Z,85.06
2018-05-17T07:02:06.600Z,85.00
2018-05-17T07:04:34.743Z,84.28
2018-05-17T07:07:02.866Z,84.44
2018-05-17T07:09:31.005Z,84.13
2018-05-17T07:11:59.138Z,83.72
2018-05-17T07:14:27.274Z,83.41
2018-05-17T07:16:55.407Z,83.75
2018-05-17T07:19:23.543Z,83.81
2018-05-17T07:21:51.677Z,83.65
2018-05-17T07:24:19.799Z,82.63
2018-05-17T07:26:47.943Z,82.56
2018-05-17T07:29:16.073Z,81.98
2018-05-17T07:31:44.205Z,82.28
2018-05-17T07:34:12.345Z,81.48
2018-05-17T07:36:40.488Z,81.78
2018-05-17T07:39:08.702Z,80.41
2018-05-17T07:41:36.776Z,81.64
2018-05-17T07:44:04.919Z,81.06
2018-05-17T07:46:33.064Z,81.60
2018-05-17T07:49:01.207Z,82.08
2018-05-17T07:51:29.341Z,81.88
2018-05-17T07:53:57.473Z,80.95
2018-05-17T07:56:25.624Z,81.22
2018-05-17T07:58:53.741Z,81.08
2018-05-17T08:01:21.887Z,81.39
2018-05-17T08:03:50.027Z,80.93
2018-05-17T08:06:18.182Z,82.17
2018-05-17T08:08:46.311Z,80.83
2018-05-17T08:11:14.472Z,80.49
2018-05-17T08:13:42.577Z,80.89
2018-05-17T08:16:10.730Z,81.03
2018-05-17T08:18:38.861Z,80.62
2018-05-17T08:21:07.008Z,80.39
2018-05-17T08:23:35.138Z,80.38
2018-05-17T08:26:03.277Z,81.01
2018-05-17T08:28:31.407Z,80.60
2018-05-17T08:30:59.540Z,79.88
2018-05-17T08:33:27.679Z,80.38
2018-05-17T08:35:55.826Z,80.76
2018-05-17T08:38:23.952Z,81.71
2018-05-17T08:40:52.099Z,81.35
2018-05-17T08:43:20.248Z,81.60
2018-05-17T08:45:48.384Z,81.81
2018-05-17T08:48:16.509Z,81.51
2018-05-17T08:50:44.652Z,81.36
2018-05-17T08:53:12.771Z,81.76
2018-05-17T08:55:40.909Z,82.33
2018-05-17T08:58:09.028Z,82.87
2018-05-17T09:00:37.166Z,83.66
2018-05-17T09:03:05.307Z,84.28
2018-05-17T09:05:33.446Z,83.64
2018-05-17T09:08:01.568Z,84.25
2018-05-17T09:10:29.708Z,83.72
2018-05-17T09:12:57.836Z,83.00
2018-05-17T09:15:25.959Z,84.76
2018-05-17T09:17:54.131Z,84.30
2018-05-17T09:20:22.277Z,85.34
2018-05-17T09:22:50.393Z,86.19
2018-05-17T09:25:18.566Z,85.99
2018-05-17T09:27:46.690Z,84.87
2018-05-17T09:30:15.214Z,84.65
2018-05-17T09:32:43.460Z,84.31
2018-05-17T09:35:11.583Z,83.67
2018-05-17T09:37:39.714Z,83.50
2018-05-17T09:40:07.848Z,83.31
2018-05-17T09:42:35.975Z,82.99
2018-05-17T09:45:04.094Z,82.51
2018-05-17T09:47:32.234Z,81.78
2018-05-17T09:50:00.441Z,81.55
2018-05-17T09:52:28.486Z,80.84
2018-05-17T09:54:56.647Z,79.83
2018-05-17T09:57:24.762Z,79.75
2018-05-17T09:59:52.886Z,79.89
2018-05-17T10:02:21.032Z,78.98
2018-05-17T10:04:49.167Z,78.06
2018-05-17T10:07:17.559Z,77.56
2018-05-17T10:09:45.698Z,77.80
2018-05-17T10:12:13.825Z,77.83
2018-05-17T10:14:42.025Z,77.25
2018-05-17T10:17:10.804Z,77.36
2018-05-17T10:19:38.950Z,77.71
2018-05-17T10:22:07.103Z,78.57
2018-05-17T10:24:35.272Z,79.12
2018-05-17T10:27:03.397Z,78.63
2018-05-17T10:29:31.576Z,78.47
2018-05-17T10:31:59.660Z,78.95
2018-05-17T10:34:27.827Z,78.56
2018-05-17T10:36:55.960Z,78.47
2018-05-17T10:39:24.094Z,77.74
2018-05-17T10:41:52.238Z,78.51
2018-05-17T10:44:20.374Z,79.27
2018-05-17T10:46:48.520Z,79.78
2018-05-17T10:49:16.647Z,79.84
2018-05-17T10:51:44.775Z,78.88
2018-05-17T10:54:12.897Z,79.49
2018-05-17T10:56:41.043Z,80.43
2018-05-17T10:59:09.165Z,82.05
2018-05-17T11:01:37.292Z,81.87
2018-05-17T11:04:05.427Z,81.38
2018-05-17T11:06:33.550Z,82.96
2018-05-17T11:09:01.702Z,83.05
2018-05-17T11:11:29.835Z,83.29
2018-05-17T11:13:57.971Z,83.62
2018-05-17T11:16:26.095Z,84.27
2018-05-17T11:18:54.237Z,85.03
2018-05-17T11:21:22.408Z,85.35
2018-05-17T11:23:50.543Z,86.35
2018-05-17T11:26:18.684Z,86.75
2018-05-17T11:28:46.822Z,86.86
2018-05-17T11:31:14.983Z,86.77
2018-05-17T11:33:43.124Z,87.75
2018-05-17T11:36:11.251Z,87.44
2018-05-17T11:38:39.374Z,88.23
2018-05-17T11:41:07.557Z,88.68
2018-05-17T11:43:35.719Z,88.79
2018-05-17T11:46:03.863Z,89.03
2018-05-17T11:48:32.014Z,90.01
2018-05-17T11:51:00.135Z,90.02
2018-05-17T11:53:28.272Z,90.16
2018-05-17T11:55:56.421Z,90.40
2018-05-17T11:58:24.565Z,91.11
2018-05-17T12:00:52.693Z,91.10
2018-05-17T12:03:20.820Z,91.09
2018-05-17T12:05:48.947Z,91.12
2018-05-17T12:08:17.076Z,91.31
2018-05-17T12:10:46.216Z,91.17
2018-05-17T12:13:14.352Z,91.59
2018-05-17T12:15:42.670Z,91.02
2018-05-17T12:18:10.650Z,90.80
2018-05-17T12:20:38.770Z,90.81
2018-05-17T12:23:07.134Z,91.09
2018-05-17T12:25:35.153Z,90.38
2018-05-17T12:28:03.291Z,90.80
2018-05-17T12:30:31.452Z,90.00
2018-05-17T12:32:59.583Z,89.87
2018-05-17T12:35:27.743Z,90.65
2018-05-17T12:37:55.874Z,91.36
2018-05-17T12:40:24.012Z,90.86
2018-05-17T12:42:52.161Z,90.86
2018-05-17T12:45:20.301Z,91.74
2018-05-17T12:47:48.439Z,91.03
2018-05-17T12:50:16.577Z,89.60
2018-05-17T12:52:44.709Z,90.78
2018-05-17T12:55:12.868Z,90.60
2018-05-17T12:57:40.998Z,91.71
2018-05-17T13:00:09.130Z,90.71
2018-05-17T13:02:37.274Z,89.76
2018-05-17T13:05:07.164Z,90.55
2018-05-17T13:07:35.297Z,90.94
2018-05-17T13:10:03.425Z,91.99
2018-05-17T13:12:31.569Z,91.45
2018-05-17T13:14:59.735Z,91.83
2018-05-17T13:17:27.874Z,90.36
2018-05-17T13:19:56.002Z,91.46
2018-05-17T13:22:24.150Z,92.04
2018-05-17T13:24:52.329Z,92.06
2018-05-17T13:27:20.421Z,91.85
2018-05-17T13:29:48.577Z,90.64
2018-05-17T13:32:16.708Z,90.25
2018-05-17T13:34:44.852Z,89.67
2018-05-17T13:37:13.119Z,89.55
2018-05-17T13:39:41.200Z,90.21
2018-05-17T13:42:09.337Z,90.79
2018-05-17T13:44:37.478Z,90.67
2018-05-17T13:47:05.657Z,91.34
2018-05-17T13:49:33.784Z,91.93
2018-05-17T13:52:01.916Z,91.16
2018-05-17T13:54:30.048Z,92.11
2018-05-17T13:56:58.190Z,92.37
2018-05-17T13:59:26.333Z,92.47
2018-05-17T14:01:54.476Z,92.92
2018-05-17T14:04:22.610Z,92.72
2018-05-17T14:06:50.751Z,93.28
2018-05-17T14:09:18.896Z,93.41
2018-05-17T14:11:47.567Z,93.12
2018-05-17T14:14:15.719Z,92.40
2018-05-17T14:16:43.839Z,92.83
2018-05-17T14:19:12.034Z,93.54
2018-05-17T14:21:40.186Z,93.78
2018-05-17T14:24:09.158Z,93.28
2018-05-17T14:26:37.319Z,93.34
2018-05-17T14:29:05.476Z,93.51
2018-05-17T14:31:33.624Z,93.58
2018-05-17T14:34:01.746Z,93.13
2018-05-17T14:36:29.898Z,93.74
2018-05-17T14:38:58.045Z,93.39
2018-05-17T14:41:26.190Z,92.51
2018-05-17T14:43:54.325Z,92.46
2018-05-17T14:46:22.458Z,93.10
2018-05-17T14:48:50.595Z,92.80
2018-05-17T14:51:19.289Z,92.74
2018-05-17T14:53:47.439Z,92.56
2018-05-17T14:56:15.575Z,93.34
2018-05-17T14:58:44.033Z,93.12
2018-05-17T15:01:12.259Z,93.02
2018-05-17T15:03:40.351Z,92.87
2018-05-17T15:06:08.484Z,92.91
2018-05-17T15:08:36.636Z,93.13
2018-05-17T15:11:04.778Z,92.96
2018-05-17T15:13:32.935Z,93.05
2018-05-17T15:16:01.078Z,92.79
2018-05-17T15:18:29.203Z,92.35
2018-05-17T15:20:57.341Z,92.61
2018-05-17T15:23:25.491Z,91.65
2018-05-17T15:25:53.638Z,90.73
2018-05-17T15:28:21.815Z,90.83
2018-05-17T15:30:49.988Z,89.48
2018-05-17T15:33:18.164Z,90.01
2018-05-17T15:35:46.349Z,89.19
2018-05-17T15:38:14.489Z,88.77
2018-05-17T15:40:42.613Z,89.12
2018-05-17T15:43:10.758Z,89.33
2018-05-17T15:45:38.881Z,89.00
2018-05-17T15:48:07.081Z,88.93
2018-05-17T15:50:35.170Z,89.27
2018-05-17T15:53:03.370Z,89.41
2018-05-17T15:55:31.502Z,89.61
2018-05-17T15:57:59.655Z,89.59
2018-05-17T16:00:27.799Z,90.50
2018-05-17T16:02:55.937Z,90.24
2018-05-17T16:05:24.073Z,90.10
2018-05-17T16:07:52.209Z,90.64
2018-05-17T16:10:20.346Z,90.91
2018-05-17T16:12:48.497Z,91.24
2018-05-17T16:15:16.788Z,91.23
2018-05-17T16:17:44.811Z,90.79
2018-05-17T16:20:12.951Z,91.37
2018-05-17T16:22:41.099Z,91.99
2018-05-17T16:25:10.277Z,91.88
2018-05-17T16:27:38.417Z,92.02
2018-05-17T16:30:06.546Z,91.75
2018-05-17T16:32:34.701Z,92.14
2018-05-17T16:35:02.843Z,92.01
2018-05-17T16:37:30.987Z,92.27
2018-05-17T16:39:59.119Z,92.62
2018-05-17T16:42:27.249Z,92.70
2018-05-17T16:44:55.381Z,92.74
2018-05-17T16:47:23.556Z,92.86
2018-05-17T16:49:52.086Z,93.17
2018-05-17T16:52:20.248Z,93.64
2018-05-17T16:54:48.382Z,93.49
2018-05-17T16:57:16.534Z,93.50
2018-05-17T16:59:44.685Z,93.73
2018-05-17T17:02:12.819Z,94.10
2018-05-17T17:04:41.052Z,94.15
2018-05-17T17:07:09.100Z,94.26
2018-05-17T17:09:37.250Z,94.18
2018-05-17T17:12:05.374Z,94.45
2018-05-17T17:14:33.508Z,94.73
2018-05-17T17:17:01.654Z,94.82
2018-05-17T17:19:29.799Z,95.00
2018-05-17T17:21:57.925Z,95.16
2018-05-17T17:24:26.076Z,95.39
2018-05-17T17:26:54.213Z,95.65
2018-05-17T17:29:22.333Z,95.55
2018-05-17T17:31:50.476Z,95.54
2018-05-17T17:34:18.655Z,95.77
2018-05-17T17:36:46.754Z,96.12
2018-05-17T17:39:14.916Z,96.21
2018-05-17T17:41:43.094Z,96.38
2018-05-17T17:44:11.255Z,96.52
2018-05-17T17:46:39.404Z,96.53
2018-05-17T17:49:07.563Z,96.54
2018-05-17T17:51:35.686Z,96.57
2018-05-17T17:54:03.841Z,96.75
2018-05-17T17:56:31.969Z,96.82
2018-05-17T17:59:00.100Z,96.92
2018-05-17T18:01:28.240Z,97.27
2018-05-17T18:03:56.390Z,97.35
2018-05-17T18:06:24.824Z,97.39
2018-05-17T18:08:52.965Z,97.52
2018-05-17T18:11:21.260Z,97.84
2018-05-17T18:13:49.395Z,97.93
2018-05-17T18:16:17.535Z,97.98
2018-05-17T18:18:46.549Z,97.90
2018-05-17T18:21:14.718Z,97.89
2018-05-17T18:23:42.854Z,97.88
2018-05-17T18:26:11.092Z,97.84
2018-05-17T18:28:39.172Z,97.91
2018-05-17T18:31:07.358Z,98.03
2018-05-17T18:33:35.511Z,98.14
2018-05-17T18:36:03.667Z,98.10
2018-05-17T18:38:32.555Z,97.40
2018-05-17T18:41:00.683Z,97.62
2018-05-17T18:43:28.819Z,98.00
2018-05-17T18:45:56.958Z,98.28
2018-05-17T18:48:25.094Z,98.48
2018-05-17T18:50:53.248Z,98.65
2018-05-17T18:53:21.407Z,98.51
2018-05-17T18:55:49.759Z,98.37
2018-05-17T18:58:17.847Z,96.48
2018-05-17T19:00:46.156Z,95.99
2018-05-17T19:03:14.309Z,96.11
2018-05-17T19:05:42.459Z,95.98
2018-05-17T19:08:10.616Z,96.00
2018-05-17T19:10:38.774Z,96.17
2018-05-17T19:13:06.961Z,96.26
2018-05-17T19:15:35.099Z,96.99
2018-05-17T19:18:03.244Z,97.28
2018-05-17T19:20:31.459Z,97.73
2018-05-17T19:22:59.547Z,97.94
2018-05-17T19:25:27.852Z,98.14
2018-05-17T19:27:56.024Z,98.52
2018-05-17T19:30:24.174Z,98.85
2018-05-17T19:32:52.468Z,99.25
2018-05-17T19:35:20.604Z,99.24
2018-05-17T19:37:48.737Z,99.18
2018-05-17T19:40:16.871Z,99.31
2018-05-17T19:42:45.028Z,99.43
2018-05-17T19:45:14.025Z,99.58
2018-05-17T19:47:42.175Z,99.89
2018-05-17T19:50:10.297Z,99.97
2018-05-17T19:52:38.426Z,99.98
2018-05-17T19:55:06.674Z,100.00
2018-05-17T19:57:34.807Z,100.00
2018-05-17T20:00:02.969Z,100.00
2018-05-17T20:02:31.135Z,100.00
2018-05-17T20:04:59.352Z,100.00
2018-05-17T20:07:27.440Z,100.00
2018-05-17T20:09:55.575Z,100.00
2018-05-17T20:12:23.716Z,100.00
2018-05-17T20:14:51.852Z,100.00
2018-05-17T20:17:20.018Z,100.00
2018-05-17T20:19:48.158Z,100.00
2018-05-17T20:22:16.297Z,100.00
2018-05-17T20:24:44.450Z,99.91
2018-05-17T20:27:12.606Z,99.38
2018-05-17T20:29:40.779Z,99.05
2018-05-17T20:32:08.916Z,98.64
2018-05-17T20:34:37.066Z,98.42
2018-05-17T20:37:05.216Z,97.96
2018-05-17T20:39:33.369Z,97.86
2018-05-17T20:42:01.523Z,97.74
2018-05-17T20:44:29.695Z,97.78
2018-05-17T20:46:57.829Z,97.88
2018-05-17T20:49:25.971Z,97.95
2018-05-17T20:51:54.305Z,98.23
2018-05-17T20:54:22.454Z,98.20
2018-05-17T20:56:50.600Z,98.15
2018-05-17T20:59:18.734Z,98.33
2018-05-17T21:01:46.889Z,98.16
2018-05-17T21:04:15.047Z,97.96
2018-05-17T21:06:43.183Z,97.19
2018-05-17T21:09:11.337Z,97.21
2018-05-17T21:11:39.475Z,97.13
2018-05-17T21:14:07.615Z,96.99
2018-05-17T21:16:35.749Z,96.64
2018-05-17T21:19:03.903Z,96.83
2018-05-17T21:21:32.044Z,96.37
2018-05-17T21:24:00.200Z,95.52
2018-05-17T21:26:28.360Z,95.26
2018-05-17T21:28:56.501Z,94.97
2018-05-17T21:31:24.659Z,95.27
2018-05-17T21:33:52.808Z,95.35
2018-05-17T21:36:20.937Z,95.58
2018-05-17T21:38:49.085Z,95.45
2018-05-17T21:41:17.228Z,95.62
2018-05-17T21:43:45.372Z,95.40
2018-05-17T21:46:13.520Z,95.49
2018-05-17T21:48:41.659Z,95.41
2018-05-17T21:51:10.075Z,95.43
2018-05-17T21:53:38.215Z,95.37
2018-05-17T21:56:06.352Z,94.93
2018-05-17T21:58:34.500Z,94.80
2018-05-17T22:01:02.785Z,94.77
2018-05-17T22:03:31.038Z,94.80
2018-05-17T22:05:59.155Z,95.04
2018-05-17T22:08:27.310Z,94.75
2018-05-17T22:10:55.451Z,95.11
2018-05-17T22:13:23.587Z,95.29
2018-05-17T22:15:51.737Z,95.74
2018-05-17T22:18:19.855Z,96.02
2018-05-17T22:20:48.002Z,96.19
2018-05-17T22:23:16.160Z,96.14
2018-05-17T22:25:44.286Z,96.39
2018-05-17T22:28:13.734Z,96.44
2018-05-17T22:30:41.878Z,96.57
2018-05-17T22:33:10.255Z,96.86
2018-05-17T22:35:38.853Z,96.82
2018-05-17T22:38:07.032Z,96.82
2018-05-17T22:40:35.158Z,96.93
2018-05-17T22:43:03.294Z,96.41
2018-05-17T22:45:31.448Z,96.22
2018-05-17T22:47:59.578Z,96.18
2018-05-17T22:50:27.722Z,95.62
2018-05-17T22:52:55.857Z,95.72
2018-05-17T22:55:23.987Z,96.03
2018-05-17T22:58:03.917Z,96.35
2018-05-17T23:00:32.043Z,96.53
2018-05-17T23:03:00.179Z,96.25
2018-05-17T23:05:28.325Z,96.69
2018-05-17T23:07:56.459Z,96.86
2018-05-17T23:10:24.606Z,96.97
2018-05-17T23:12:52.771Z,97.12
2018-05-17T23:15:20.907Z,97.06
2018-05-17T23:17:49.052Z,97.31
2018-05-17T23:20:17.194Z,97.42
2018-05-17T23:22:45.343Z,96.75
2018-05-17T23:25:13.479Z,97.08
2018-05-17T23:27:41.616Z,97.13
2018-05-17T23:30:09.763Z,97.31
2018-05-17T23:32:37.886Z,97.51
2018-05-17T23:35:06.115Z,97.72
2018-05-17T23:37:34.237Z,97.72
2018-05-17T23:43:05.033Z,98.11
2018-05-17T23:45:33.162Z,98.03
2018-05-17T23:48:01.318Z,97.67
2018-05-17T23:50:29.467Z,97.69
2018-05-17T23:52:57.627Z,97.26
2018-05-17T23:55:25.765Z,97.44
2018-05-17T23:57:54.707Z,97.50
